createdAt,value
2022-12-22T00:02:27.745Z,96443.13
2022-12-22T00:05:13.155Z,96439.66
2022-12-22T00:07:58.352Z,96436.25
2022-12-22T00:10:43.434Z,96434.56
2022-12-22T00:13:29.518Z,96438.13
2022-12-22T00:16:14.851Z,96436.38
2022-12-22T00:19:00.211Z,96435.38
2022-12-22T00:21:45.874Z,96420.91
2022-12-22T00:24:31.075Z,96412.44
2022-12-22T00:27:16.254Z,96417.47
2022-12-22T00:30:01.417Z,96405.50
2022-12-22T00:32:51.166Z,96399.44
2022-12-22T00:35:36.348Z,96400.25
2022-12-22T00:38:23.597Z,96409.44
2022-12-22T00:41:08.926Z,96406.00
2022-12-22T00:43:53.907Z,96401.47
2022-12-22T00:46:39.988Z,96400.66
2022-12-22T00:49:25.150Z,96408.34
2022-12-22T00:52:10.296Z,96405.66
2022-12-22T00:54:55.536Z,96402.91
2022-12-22T00:57:40.716Z,96410.47
2022-12-22T01:00:28.356Z,96403.50
2022-12-22T01:03:13.605Z,96402.09
2022-12-22T01:05:58.724Z,96400.34
2022-12-22T01:08:43.929Z,96413.94
2022-12-22T01:11:29.220Z,96413.72
2022-12-22T01:14:34.299Z,96410.34
2022-12-22T01:17:19.399Z,96418.75
2022-12-22T01:20:05.455Z,96422.63
2022-12-22T01:22:50.526Z,96417.53
2022-12-22T01:25:36.200Z,96417.00
2022-12-22T01:28:21.307Z,96417.81
2022-12-22T01:31:06.403Z,96424.69
2022-12-22T01:33:51.558Z,96416.28
2022-12-22T01:36:37.015Z,96411.59
2022-12-22T01:39:22.161Z,96413.31
2022-12-22T01:42:07.165Z,96415.78
2022-12-22T01:44:52.195Z,96406.47
2022-12-22T01:47:46.401Z,96406.34
2022-12-22T01:50:47.812Z,96399.00
2022-12-22T01:53:33.930Z,96389.88
2022-12-22T01:56:19.047Z,96389.88
2022-12-22T01:59:05.163Z,96382.53
2022-12-22T02:01:51.567Z,96386.84
2022-12-22T02:04:36.725Z,96380.00
2022-12-22T02:07:23.537Z,96376.38
2022-12-22T02:10:08.713Z,96381.63
2022-12-22T02:13:29.210Z,96379.19
2022-12-22T02:16:33.043Z,96380.47
2022-12-22T02:19:24.338Z,96378.75
2022-12-22T02:22:13.135Z,96384.56
2022-12-22T02:25:22.224Z,96388.56
2022-12-22T02:28:07.236Z,96393.31
2022-12-22T02:30:52.497Z,96390.69
2022-12-22T02:33:38.448Z,96398.00
2022-12-22T02:36:24.108Z,96392.00
2022-12-22T02:39:15.455Z,96391.19
2022-12-22T02:42:13.091Z,96399.69
2022-12-22T02:45:16.689Z,96386.88
2022-12-22T02:48:02.915Z,96379.19
2022-12-22T02:51:00.942Z,96380.72
2022-12-22T02:53:46.271Z,96372.91
2022-12-22T02:56:31.583Z,96367.97
2022-12-22T02:59:16.722Z,96377.28
2022-12-22T03:02:02.477Z,96371.66
2022-12-22T03:04:47.585Z,96372.59
2022-12-22T03:07:32.748Z,96377.72
2022-12-22T03:10:18.008Z,96378.41
2022-12-22T03:13:03.062Z,96384.97
2022-12-22T03:15:48.253Z,96380.78
2022-12-22T03:18:33.507Z,96380.97
2022-12-22T03:21:18.697Z,96385.19
2022-12-22T03:24:03.666Z,96388.56
2022-12-22T03:26:30.428Z,96381.72
2022-12-22T03:28:57.028Z,96372.88
2022-12-22T03:31:23.683Z,96372.78
2022-12-22T03:33:50.141Z,96369.41
2022-12-22T03:36:16.576Z,96369.41
2022-12-22T03:38:43.163Z,96360.06
2022-12-22T03:41:29.578Z,96365.09
2022-12-22T03:44:14.848Z,96355.78
2022-12-22T03:46:41.357Z,96354.25
2022-12-22T03:49:10.996Z,96349.25
2022-12-22T03:51:41.611Z,96352.00
2022-12-22T03:54:08.175Z,96353.88
2022-12-22T03:56:34.636Z,96353.16
2022-12-22T03:59:01.112Z,96348.97
2022-12-22T04:01:27.700Z,96343.84
2022-12-22T04:03:54.178Z,96351.44
2022-12-22T04:06:32.803Z,96346.31
2022-12-22T04:08:59.218Z,96350.69
2022-12-22T04:11:44.406Z,96216.47
2022-12-22T04:14:11.035Z,96334.66
2022-12-22T04:16:37.564Z,96336.38
2022-12-22T04:19:04.170Z,96328.72
2022-12-22T04:21:30.603Z,96329.53
2022-12-22T04:23:57.114Z,96330.22
2022-12-22T04:26:23.797Z,96320.72
2022-12-22T04:28:50.799Z,96318.97
2022-12-22T04:31:17.291Z,96316.28
2022-12-22T04:33:43.843Z,96316.28
2022-12-22T04:36:10.498Z,96308.59
2022-12-22T04:38:37.200Z,96303.50
2022-12-22T04:41:03.676Z,96301.53
2022-12-22T04:43:30.126Z,96300.97
2022-12-22T04:45:56.655Z,96303.34
2022-12-22T04:48:23.578Z,96290.28
2022-12-22T04:50:50.611Z,96297.84
2022-12-22T04:53:17.127Z,96293.53
2022-12-22T04:55:47.290Z,96298.66
2022-12-22T04:58:13.924Z,96303.78
2022-12-22T05:00:40.403Z,96291.81
2022-12-22T05:03:07.330Z,96297.03
2022-12-22T05:05:34.124Z,96292.97
2022-12-22T05:08:00.557Z,96302.59
2022-12-22T05:10:27.089Z,96305.28
2022-12-22T05:12:56.483Z,96303.66
2022-12-22T05:15:22.870Z,96209.47
2022-12-22T05:17:49.530Z,96305.59
2022-12-22T05:20:16.221Z,96319.53
2022-12-22T05:22:42.680Z,96305.25
2022-12-22T05:25:09.368Z,96301.38
2022-12-22T05:27:35.880Z,96295.56
2022-12-22T05:30:02.322Z,96294.84
2022-12-22T05:32:31.817Z,96303.44
2022-12-22T05:34:58.247Z,96311.44
2022-12-22T05:37:24.683Z,96312.25
2022-12-22T05:39:51.343Z,96305.50
2022-12-22T05:42:35.905Z,96304.56
2022-12-22T05:45:03.450Z,96302.94
2022-12-22T05:47:29.864Z,96294.56
2022-12-22T05:49:56.443Z,96292.84
2022-12-22T05:52:22.918Z,96282.47
2022-12-22T05:54:49.350Z,96282.28
2022-12-22T05:57:16.033Z,96279.47
2022-12-22T05:59:42.540Z,96287.16
2022-12-22T06:02:09.047Z,96279.47
2022-12-22T06:04:35.564Z,96282.16
2022-12-22T06:07:02.072Z,96276.44
2022-12-22T06:09:28.654Z,96278.28
2022-12-22T06:11:55.103Z,96277.34
2022-12-22T06:14:21.580Z,96276.34
2022-12-22T06:16:48.050Z,96277.28
2022-12-22T06:19:14.477Z,96285.75
2022-12-22T06:21:40.974Z,96285.84
2022-12-22T06:24:07.654Z,96279.91
2022-12-22T06:26:34.108Z,96280.72
2022-12-22T06:29:00.632Z,96281.53
2022-12-22T06:31:27.233Z,96270.41
2022-12-22T06:33:54.098Z,96269.34
2022-12-22T06:36:20.549Z,96269.97
2022-12-22T06:38:47.124Z,96280.91
2022-12-22T06:41:13.847Z,96272.41
2022-12-22T06:43:40.335Z,96278.47
2022-12-22T06:46:07.375Z,96271.59
2022-12-22T06:48:34.033Z,96278.34
2022-12-22T06:51:00.462Z,96276.47
2022-12-22T06:53:27.118Z,96267.97
2022-12-22T06:55:53.567Z,96263.78
2022-12-22T06:58:20.013Z,96267.97
2022-12-22T07:00:48.838Z,96268.78
2022-12-22T07:03:15.606Z,96272.28
2022-12-22T07:05:58.465Z,96268.91
2022-12-22T07:08:25.070Z,96268.91
2022-12-22T07:11:00.867Z,96273.09
2022-12-22T07:13:28.481Z,96276.59
2022-12-22T07:16:00.734Z,96271.34
2022-12-22T07:18:29.170Z,96268.78
2022-12-22T07:20:55.707Z,96261.84
2022-12-22T07:23:22.200Z,96258.34
2022-12-22T07:25:48.870Z,96259.78
2022-12-22T07:28:20.667Z,96253.72
2022-12-22T07:30:47.656Z,96261.06
2022-12-22T07:33:14.137Z,96262.69
2022-12-22T07:35:40.556Z,96253.72
2022-12-22T07:38:07.004Z,96252.91
2022-12-22T07:40:38.002Z,96236.13
2022-12-22T07:43:08.179Z,96231.69
2022-12-22T07:45:34.638Z,96228.34
2022-12-22T07:48:01.206Z,96229.94
2022-12-22T07:50:32.917Z,96223.28
2022-12-22T07:52:59.988Z,96217.38
2022-12-22T07:55:27.515Z,96209.69
2022-12-22T07:57:54.072Z,96211.31
2022-12-22T08:00:20.795Z,96215.25
2022-12-22T08:02:50.781Z,96204.66
2022-12-22T08:05:17.415Z,96205.44
2022-12-22T08:07:44.092Z,96196.94
2022-12-22T08:10:10.742Z,96201.44
2022-12-22T08:12:37.222Z,96196.78
2022-12-22T08:15:04.055Z,96197.91
2022-12-22T08:17:30.539Z,96187.75
2022-12-22T08:19:57.054Z,96194.44
2022-12-22T08:22:26.632Z,96197.44
2022-12-22T08:24:53.611Z,96197.81
2022-12-22T08:27:49.475Z,96205.06
2022-12-22T08:30:15.969Z,96216.47
2022-12-22T08:32:44.507Z,96214.16
2022-12-22T08:35:11.356Z,96213.19
2022-12-22T08:37:41.458Z,96214.53
2022-12-22T08:40:09.058Z,96212.69
2022-12-22T08:42:35.495Z,96209.22
2022-12-22T08:45:01.938Z,96213.38
2022-12-22T08:47:28.445Z,96226.56
2022-12-22T08:49:55.016Z,96209.22
2022-12-22T08:52:21.465Z,96202.88
2022-12-22T08:54:47.947Z,96198.28
2022-12-22T08:57:14.431Z,96200.88
2022-12-22T08:59:40.896Z,96197.38
2022-12-22T09:02:10.516Z,96198.16
2022-12-22T09:04:37.032Z,96193.66
2022-12-22T09:07:03.701Z,96198.78
2022-12-22T09:09:33.310Z,96196.31
2022-12-22T09:12:00.128Z,96193.84
2022-12-22T09:14:26.733Z,96190.19
2022-12-22T09:16:53.248Z,96188.00
2022-12-22T09:19:19.766Z,96179.22
2022-12-22T09:21:46.588Z,96183.13
2022-12-22T09:24:13.120Z,96178.97
2022-12-22T09:26:39.763Z,96176.69
2022-12-22T09:29:06.401Z,96178.72
2022-12-22T09:31:33.523Z,96168.16
2022-12-22T09:33:59.976Z,96163.44
2022-12-22T09:36:27.457Z,96160.03
2022-12-22T09:38:53.904Z,96164.53
2022-12-22T09:41:26.619Z,96159.66
2022-12-22T09:43:53.283Z,96159.91
2022-12-22T09:46:26.098Z,96145.84
2022-12-22T09:48:52.859Z,96142.19
2022-12-22T09:51:26.194Z,96135.53
2022-12-22T09:53:59.803Z,96143.94
2022-12-22T09:56:29.287Z,96138.25
2022-12-22T09:58:55.860Z,96134.34
2022-12-22T10:01:29.248Z,96125.13
2022-12-22T10:04:08.114Z,96132.03
2022-12-22T10:06:34.825Z,96133.38
2022-12-22T10:09:35.904Z,96124.72
2022-12-22T10:11:57.423Z,96118.72
2022-12-22T10:14:31.882Z,96131.59
2022-12-22T10:17:17.098Z,96126.88
2022-12-22T10:19:43.549Z,96108.44
2022-12-22T10:22:24.930Z,96117.13
2022-12-22T10:24:51.384Z,96114.66
2022-12-22T10:27:17.996Z,96099.50
2022-12-22T10:29:44.486Z,96108.72
2022-12-22T10:32:15.050Z,96096.00
2022-12-22T10:35:11.126Z,96101.81
2022-12-22T10:37:38.190Z,96098.69
2022-12-22T10:40:15.720Z,96090.59
2022-12-22T10:42:48.802Z,96100.03
2022-12-22T10:45:19.251Z,96105.75
2022-12-22T10:47:47.222Z,96109.25
2022-12-22T10:50:13.706Z,96113.59
2022-12-22T10:52:40.163Z,96108.72
2022-12-22T10:55:16.955Z,96099.38
2022-12-22T10:57:43.442Z,96089.50
2022-12-22T11:00:23.412Z,96099.13
2022-12-22T11:02:53.639Z,96091.50
2022-12-22T11:05:20.217Z,96065.66
2022-12-22T11:07:49.799Z,96071.75
2022-12-22T11:10:17.564Z,96086.78
2022-12-22T11:12:47.179Z,96072.97
2022-12-22T11:15:37.010Z,96064.97
2022-12-22T11:18:06.484Z,96065.53
2022-12-22T11:20:42.183Z,96052.94
2022-12-22T11:23:24.886Z,96054.56
2022-12-22T11:26:12.006Z,96047.50
2022-12-22T11:28:53.751Z,96045.34
2022-12-22T11:31:26.896Z,96049.97
2022-12-22T11:33:59.632Z,96026.25
2022-12-22T11:36:49.884Z,96013.69
2022-12-22T11:39:17.507Z,96005.69
2022-12-22T11:41:52.971Z,96019.91
2022-12-22T11:44:31.740Z,96015.72
2022-12-22T11:46:58.213Z,96022.06
2022-12-22T11:49:30.732Z,96005.69
2022-12-22T11:52:07.598Z,96002.16
2022-12-22T11:54:37.245Z,96014.75
2022-12-22T11:57:19.532Z,96010.44
2022-12-22T11:59:52.169Z,96004.59
2022-12-22T12:02:37.507Z,96003.94
2022-12-22T12:05:19.557Z,95996.22
2022-12-22T12:07:48.784Z,95993.91
2022-12-22T12:10:15.395Z,95997.97
2022-12-22T12:13:08.631Z,95987.78
2022-12-22T12:15:38.053Z,95983.31
2022-12-22T12:18:07.608Z,95973.56
2022-12-22T12:20:34.070Z,95981.13
2022-12-22T12:23:19.190Z,95970.53
2022-12-22T12:25:54.796Z,95977.19
2022-12-22T12:28:29.317Z,95976.88
2022-12-22T12:30:59.571Z,95991.38
2022-12-22T12:33:32.235Z,95995.16
2022-12-22T12:36:01.904Z,95987.75
2022-12-22T12:41:14.812Z,96001.38
2022-12-22T12:43:41.408Z,95997.44
2022-12-22T12:46:26.651Z,95991.31
2022-12-22T12:48:56.343Z,95991.63
2022-12-22T12:51:58.467Z,95990.00
2022-12-22T12:54:30.640Z,95987.19
2022-12-22T12:57:00.973Z,95991.13
2022-12-22T12:59:42.609Z,95983.63
2022-12-22T13:02:27.887Z,95986.09
2022-12-22T13:05:01.267Z,95983.09
2022-12-22T13:07:46.545Z,95977.81
2022-12-22T13:10:24.373Z,95973.19
2022-12-22T13:12:51.774Z,95960.97
2022-12-22T13:15:37.407Z,95958.41
2022-12-22T13:18:04.643Z,95971.84
2022-12-22T13:20:32.312Z,95964.56
2022-12-22T13:22:59.654Z,95963.03
2022-12-22T13:25:27.769Z,95971.06
2022-12-22T13:27:55.392Z,95956.53
2022-12-22T13:30:21.873Z,95965.09
2022-12-22T13:32:48.815Z,95965.22
2022-12-22T13:35:32.534Z,95966.31
2022-12-22T13:38:00.039Z,95969.31
2022-12-22T13:40:33.742Z,95963.63
2022-12-22T13:43:04.659Z,95967.72
2022-12-22T13:45:57.566Z,95958.66
2022-12-22T13:48:31.105Z,95964.34
2022-12-22T13:50:58.176Z,95960.28
2022-12-22T13:56:17.885Z,95958.44
2022-12-22T13:58:47.585Z,95946.38
2022-12-22T14:01:17.197Z,95963.41
2022-12-22T14:04:03.856Z,95973.06
2022-12-22T14:06:32.684Z,95976.03
2022-12-22T14:09:14.544Z,95982.13
2022-12-22T14:11:47.059Z,95979.31
2022-12-22T14:14:18.243Z,95972.00
2022-12-22T14:16:45.867Z,95966.84
2022-12-22T14:19:16.469Z,95964.28
2022-12-22T14:21:43.379Z,95959.28
2022-12-22T14:24:11.797Z,95954.94
2022-12-22T14:26:38.512Z,95954.53
2022-12-22T14:29:04.991Z,95962.09
2022-12-22T14:31:31.486Z,95953.16
2022-12-22T14:34:05.290Z,95964.69
2022-12-22T14:36:40.794Z,95975.94
2022-12-22T14:39:10.687Z,95957.09
2022-12-22T14:41:41.907Z,95977.53
2022-12-22T14:44:32.000Z,95973.22
2022-12-22T14:47:01.465Z,95991.72
2022-12-22T14:49:27.909Z,95990.28
2022-12-22T14:52:00.735Z,95974.16
2022-12-22T14:54:27.806Z,95975.38
2022-12-22T14:56:54.518Z,95980.91
2022-12-22T14:59:25.881Z,95979.19
2022-12-22T15:01:59.207Z,95972.81
2022-12-22T15:04:25.838Z,95977.41
2022-12-22T15:06:52.401Z,95975.22
2022-12-22T15:09:33.347Z,95979.84
2022-12-22T15:12:06.309Z,95979.28
2022-12-22T15:14:38.680Z,95978.75
2022-12-22T15:17:06.253Z,95976.31
2022-12-22T15:19:35.973Z,95973.88
2022-12-22T15:22:03.159Z,95972.25
2022-12-22T15:24:29.705Z,95975.09
2022-12-22T15:26:56.517Z,95980.38
2022-12-22T15:29:22.952Z,95979.00
2022-12-22T15:31:49.395Z,95974.94
2022-12-22T15:34:22.375Z,95975.50
2022-12-22T15:36:48.836Z,95978.44
2022-12-22T15:39:15.825Z,95966.56
2022-12-22T15:41:42.931Z,95983.31
2022-12-22T15:44:09.404Z,95969.66
2022-12-22T15:46:36.167Z,95981.28
2022-12-22T15:49:02.703Z,95973.69
2022-12-22T15:51:29.814Z,95982.84
2022-12-22T15:53:56.517Z,95986.66
2022-12-22T15:56:23.455Z,95983.38
2022-12-22T15:58:49.865Z,95979.34
2022-12-22T16:01:16.393Z,95992.41
2022-12-22T16:03:42.953Z,95981.47
2022-12-22T16:06:13.633Z,95990.00
2022-12-22T16:08:40.283Z,95983.38
2022-12-22T16:11:07.075Z,95986.84
2022-12-22T16:13:33.499Z,95983.06
2022-12-22T16:16:00.043Z,95981.31
2022-12-22T16:18:26.720Z,95984.28
2022-12-22T16:20:53.278Z,95986.84
2022-12-22T16:23:20.514Z,95997.13
2022-12-22T16:25:47.207Z,95976.47
2022-12-22T16:28:33.360Z,95990.78
2022-12-22T16:31:00.019Z,95988.38
2022-12-22T16:33:26.513Z,95988.38
2022-12-22T16:35:53.208Z,95984.59
2022-12-22T16:38:19.929Z,95990.41
2022-12-22T16:40:47.335Z,95987.03
2022-12-22T16:46:02.183Z,95966.22
2022-12-22T16:48:30.763Z,95984.75
2022-12-22T16:50:57.273Z,95986.66
2022-12-22T16:53:23.771Z,95985.00
2022-12-22T16:55:50.188Z,95982.19
2022-12-22T16:58:17.019Z,95980.69
2022-12-22T17:00:43.905Z,95976.09
2022-12-22T17:03:18.688Z,95976.09
2022-12-22T17:06:05.245Z,95975.97
2022-12-22T17:08:36.470Z,95977.72
2022-12-22T17:11:10.106Z,95988.00
2022-12-22T17:13:37.240Z,95981.38
2022-12-22T17:16:05.286Z,95978.94
2022-12-22T17:18:37.202Z,95980.69
2022-12-22T17:21:04.351Z,95975.69
2022-12-22T17:23:34.929Z,95976.75
2022-12-22T17:26:02.054Z,95971.63
2022-12-22T17:28:28.478Z,95970.13
2022-12-22T17:30:55.495Z,95974.19
2022-12-22T17:33:22.029Z,95967.03
2022-12-22T17:35:48.565Z,95971.34
2022-12-22T17:38:18.543Z,95964.59
2022-12-22T17:40:45.256Z,95969.88
2022-12-22T17:43:15.532Z,95960.53
2022-12-22T17:45:42.165Z,95950.53
2022-12-22T17:48:08.924Z,95953.91
2022-12-22T17:50:35.554Z,95946.09
2022-12-22T17:53:02.201Z,95948.94
2022-12-22T17:56:05.928Z,95936.75
2022-12-22T17:58:16.277Z,95951.66
2022-12-22T18:00:42.878Z,95944.31
2022-12-22T18:03:15.727Z,95947.19
2022-12-22T18:05:46.219Z,95943.66
2022-12-22T18:08:13.043Z,95950.16
2022-12-22T18:10:42.699Z,95941.09
2022-12-22T18:13:22.698Z,95924.88
2022-12-22T18:15:49.376Z,95937.72
2022-12-22T18:18:16.388Z,95946.22
2022-12-22T18:20:42.991Z,95947.84
2022-12-22T18:23:16.488Z,95946.22
2022-12-22T18:25:43.033Z,95936.63
2022-12-22T18:28:13.037Z,95930.00
2022-12-22T18:30:39.535Z,95929.19
2022-12-22T18:33:05.996Z,95927.06
2022-12-22T18:35:32.432Z,95916.22
2022-12-22T18:37:59.002Z,95905.69
2022-12-22T18:40:38.245Z,95925.81
2022-12-22T18:43:11.664Z,95917.56
2022-12-22T18:45:38.167Z,95913.09
2022-12-22T18:48:04.727Z,95928.38
2022-12-22T18:50:31.380Z,95925.69
2022-12-22T18:52:58.734Z,95927.59
2022-12-22T18:55:26.044Z,95922.56
2022-12-22T18:57:52.862Z,95919.56
2022-12-22T19:00:20.973Z,95921.59
2022-12-22T19:02:47.980Z,95928.63
2022-12-22T19:05:18.788Z,95942.66
2022-12-22T19:07:45.358Z,95936.03
2022-12-22T19:10:15.450Z,95926.97
2022-12-22T19:12:41.971Z,95926.72
2022-12-22T19:15:12.032Z,95917.53
2022-12-22T19:17:48.345Z,95919.47
2022-12-22T19:20:16.280Z,95923.78
2022-12-22T19:22:43.944Z,95898.78
2022-12-22T19:25:17.834Z,95911.75
2022-12-22T19:27:44.268Z,95900.53
2022-12-22T19:30:20.920Z,95901.72
2022-12-22T19:32:48.356Z,95890.78
2022-12-22T19:35:15.831Z,95883.75
2022-12-22T19:37:42.358Z,95877.66
2022-12-22T19:40:09.285Z,95877.84
2022-12-22T19:42:36.222Z,95891.47
2022-12-22T20:34:36.764Z,95883.44
2022-12-22T20:37:03.284Z,95889.25
2022-12-22T20:39:30.453Z,95891.00
2022-12-22T20:41:56.890Z,95895.19
2022-12-22T20:44:23.432Z,95885.34
2022-12-22T20:46:49.980Z,95899.13
2022-12-22T20:49:16.552Z,95894.81
2022-12-22T20:51:43.116Z,95906.16
2022-12-22T20:54:12.818Z,95900.47
2022-12-22T20:56:39.420Z,95904.94
2022-12-22T20:59:31.921Z,95884.66
2022-12-22T21:01:58.603Z,95896.00
2022-12-22T21:04:25.181Z,95895.28
2022-12-22T21:06:52.679Z,95901.25
2022-12-22T21:09:19.214Z,95905.13
2022-12-22T21:11:45.711Z,95901.22
2022-12-22T21:14:12.385Z,95899.59
2022-12-22T21:16:39.063Z,95902.41
2022-12-22T21:19:05.602Z,95906.75
2022-12-22T21:21:32.190Z,95910.38
2022-12-22T21:23:58.624Z,95903.75
2022-12-22T21:26:31.986Z,95901.59
2022-12-22T21:28:58.706Z,95910.78
2022-12-22T21:31:25.198Z,95906.75
2022-12-22T21:33:51.656Z,95907.81
2022-12-22T21:36:22.771Z,95912.97
2022-12-22T21:38:49.731Z,95913.88
2022-12-22T21:41:16.349Z,95910.50
2022-12-22T21:43:42.981Z,95915.78
2022-12-22T21:46:12.998Z,95909.16
2022-12-22T21:48:39.642Z,95910.06
2022-12-22T21:51:06.131Z,95918.72
2022-12-22T21:53:32.710Z,95918.03
2022-12-22T21:55:59.205Z,95918.19
2022-12-22T21:58:25.749Z,95917.91
2022-12-22T22:00:52.169Z,95922.78
2022-12-22T22:03:18.851Z,95918.47
2022-12-22T22:05:45.423Z,95923.72
2022-12-22T22:08:12.105Z,95918.56
2022-12-22T22:10:39.427Z,95928.97
2022-12-22T22:13:05.992Z,95928.84
2022-12-22T22:15:32.614Z,95918.91
2022-12-22T22:18:04.670Z,95925.50
2022-12-22T22:20:33.649Z,95922.13
2022-12-22T22:23:00.324Z,95925.38
2022-12-22T22:25:26.883Z,95921.88
2022-12-22T22:27:53.425Z,95916.34
2022-12-22T22:30:25.081Z,95911.09
2022-12-22T22:32:51.674Z,95911.22
2022-12-22T22:35:21.191Z,95901.09
2022-12-22T22:37:50.643Z,95899.72
2022-12-22T22:40:17.925Z,95907.81
2022-12-22T22:42:44.464Z,95919.81
2022-12-22T22:45:11.641Z,95911.31
2022-12-22T22:47:38.448Z,95916.44
2022-12-22T22:50:06.912Z,95918.09
2022-12-22T22:52:38.082Z,95919.56
2022-12-22T22:55:04.717Z,95917.81
2022-12-22T22:57:31.196Z,95924.44
2022-12-22T22:59:57.680Z,95924.31
2022-12-22T23:02:24.253Z,95925.94
2022-12-22T23:04:50.933Z,95927.69
2022-12-22T23:07:17.431Z,95928.38
2022-12-22T23:09:44.011Z,95929.06
2022-12-22T23:12:10.670Z,95926.38
2022-12-22T23:14:39.493Z,95924.34
2022-12-22T23:17:05.964Z,95927.72
2022-12-22T23:19:32.432Z,95926.09
2022-12-22T23:21:58.868Z,95928.66
2022-12-22T23:24:25.323Z,95935.16
2022-12-22T23:26:51.820Z,95927.59
2022-12-22T23:29:18.283Z,95929.38
2022-12-22T23:31:44.786Z,95923.41
2022-12-22T23:34:11.821Z,95924.47
2022-12-22T23:36:38.273Z,95932.16
2022-12-22T23:39:04.714Z,95926.78
2022-12-22T23:41:31.185Z,95922.34
2022-12-22T23:43:57.646Z,95917.06
2022-12-22T23:46:24.121Z,95923.94
2022-12-22T23:48:54.481Z,95923.16
2022-12-22T23:51:21.348Z,95930.97
2022-12-22T23:53:47.797Z,95930.97
2022-12-22T23:56:14.321Z,95927.59
2022-12-22T23:58:40.722Z,95931.13
